<?xml version="1.0" encoding="UTF-8"?><gpx xmlns="http://www.topografix.com/GPX/1/1"  creator="TraceDeTrail http://www.tracedetrail.fr" version="1.1" xmlns:xsi="http://www.w3.org/2001/XMLSchema-instance" xsi:schemaLocation="http://www.topografix.com/GPX/1/1 http://www.topografix.com/GPX/1/1/gpx.xsd "><metadata><name>Chamrousse 1650 - Aiguille</name><link href="http://tracedetrail.fr/fr/trace/trace/146932"><text>methode de calcul : astergdem </text></link></metadata><trk><name>Chamrousse 1650 - Aiguille sur TraceDeTrail.fr</name><trkseg><trkpt lat="45.12553" lon="5.87885"><ele>1672</ele><time>2000-01-01T00:28:28.000Z</time></trkpt><trkpt lat="45.1258" lon="5.87909"><ele>1675</ele><time>2000-01-01T00:28:38.000Z</time></trkpt><trkpt lat="45.12597" lon="5.87937"><ele>1672</ele><time>2000-01-01T00:28:48.000Z</time></trkpt><trkpt lat="45.12619" lon="5.8797"><ele>1673</ele><time>2000-01-01T00:28:58.000Z</time></trkpt><trkpt lat="45.12645" lon="5.87986"><ele>1681</ele><time>2000-01-01T00:29:08.000Z</time></trkpt><trkpt lat="45.12652" lon="5.87991"><time>2000-01-01T00:29:18.000Z</time></trkpt><trkpt lat="45.12659" lon="5.87994"><time>2000-01-01T00:29:28.000Z</time></trkpt><trkpt lat="45.12673" lon="5.87991"><ele>1691</ele><time>2000-01-01T00:29:38.000Z</time></trkpt><trkpt lat="45.12687" lon="5.87996"><time>2000-01-01T00:29:48.000Z</time></trkpt><trkpt lat="45.12698" lon="5.88004"><ele>1695</ele><time>2000-01-01T00:29:58.000Z</time></trkpt><trkpt lat="45.12721" lon="5.88019"><ele>1701</ele><time>2000-01-01T00:30:08.000Z</time></trkpt><trkpt lat="45.1273" lon="5.88029"><time>2000-01-01T00:30:18.000Z</time></trkpt><trkpt lat="45.12739" lon="5.88041"><ele>1702</ele><time>2000-01-01T00:30:28.000Z</time></trkpt><trkpt lat="45.12746" lon="5.88046"><time>2000-01-01T00:30:38.000Z</time></trkpt><trkpt lat="45.12756" lon="5.88055"><ele>1714</ele><time>2000-01-01T00:30:48.000Z</time></trkpt><trkpt lat="45.12764" lon="5.8807"><time>2000-01-01T00:30:58.000Z</time></trkpt><trkpt lat="45.12773" lon="5.88085"><ele>1731</ele><time>2000-01-01T00:31:08.000Z</time></trkpt><trkpt lat="45.12784" lon="5.88104"><time>2000-01-01T00:31:18.000Z</time></trkpt><trkpt lat="45.12785" lon="5.88113"><ele>1738</ele><time>2000-01-01T00:31:28.000Z</time></trkpt><trkpt lat="45.1279" lon="5.88126"><time>2000-01-01T00:31:38.000Z</time></trkpt><trkpt lat="45.12794" lon="5.88131"><time>2000-01-01T00:31:48.000Z</time></trkpt><trkpt lat="45.12801" lon="5.88135"><ele>1741</ele><time>2000-01-01T00:31:58.000Z</time></trkpt><trkpt lat="45.12805" lon="5.88147"><time>2000-01-01T00:32:08.000Z</time></trkpt><trkpt lat="45.12807" lon="5.88163"><ele>1742</ele><time>2000-01-01T00:32:18.000Z</time></trkpt><trkpt lat="45.12811" lon="5.88176"><time>2000-01-01T00:32:28.000Z</time></trkpt><trkpt lat="45.12814" lon="5.88184"><time>2000-01-01T00:32:38.000Z</time></trkpt><trkpt lat="45.12821" lon="5.88195"><ele>1752</ele><time>2000-01-01T00:32:48.000Z</time></trkpt><trkpt lat="45.12839" lon="5.88218"><ele>1754</ele><time>2000-01-01T00:32:58.000Z</time></trkpt><trkpt lat="45.12858" lon="5.88241"><ele>1768</ele><time>2000-01-01T00:33:08.000Z</time></trkpt><trkpt lat="45.12866" lon="5.88253"><time>2000-01-01T00:33:18.000Z</time></trkpt><trkpt lat="45.12871" lon="5.8827"><ele>1771</ele><time>2000-01-01T00:33:28.000Z</time></trkpt><trkpt lat="45.12874" lon="5.88299"><ele>1771</ele><time>2000-01-01T00:33:38.000Z</time></trkpt><trkpt lat="45.12869" lon="5.88318"><time>2000-01-01T00:33:48.000Z</time></trkpt><trkpt lat="45.1288" lon="5.88342"><ele>1778</ele><time>2000-01-01T00:33:58.000Z</time></trkpt><trkpt lat="45.12886" lon="5.88351"><time>2000-01-01T00:34:08.000Z</time></trkpt><trkpt lat="45.12895" lon="5.88365"><ele>1781</ele><time>2000-01-01T00:34:18.000Z</time></trkpt><trkpt lat="45.12903" lon="5.88374"><time>2000-01-01T00:34:28.000Z</time></trkpt><trkpt lat="45.12909" lon="5.88384"><ele>1785</ele><time>2000-01-01T00:34:38.000Z</time></trkpt><trkpt lat="45.12921" lon="5.8842"><ele>1798</ele><time>2000-01-01T00:34:48.000Z</time></trkpt><trkpt lat="45.12925" lon="5.8844"><time>2000-01-01T00:34:58.000Z</time></trkpt><trkpt lat="45.12926" lon="5.88462"><ele>1808</ele><time>2000-01-01T00:35:08.000Z</time></trkpt><trkpt lat="45.12928" lon="5.88467"><time>2000-01-01T00:35:18.000Z</time></trkpt><trkpt lat="45.12932" lon="5.88468"><time>2000-01-01T00:35:28.000Z</time></trkpt><trkpt lat="45.12936" lon="5.88467"><time>2000-01-01T00:35:38.000Z</time></trkpt><trkpt lat="45.1295" lon="5.88446"><ele>1809</ele><time>2000-01-01T00:35:48.000Z</time></trkpt><trkpt lat="45.12962" lon="5.88419"><ele>1813</ele><time>2000-01-01T00:35:58.000Z</time></trkpt><trkpt lat="45.12971" lon="5.88406"><time>2000-01-01T00:36:08.000Z</time></trkpt><trkpt lat="45.12976" lon="5.88391"><ele>1816</ele><time>2000-01-01T00:36:18.000Z</time></trkpt><trkpt lat="45.12987" lon="5.88363"><ele>1821</ele><time>2000-01-01T00:36:28.000Z</time></trkpt><trkpt lat="45.12993" lon="5.88365"><time>2000-01-01T00:36:38.000Z</time></trkpt><trkpt lat="45.12994" lon="5.88366"><time>2000-01-01T00:36:48.000Z</time></trkpt><trkpt lat="45.12994" lon="5.88366"><time>2000-01-01T00:36:58.000Z</time></trkpt><trkpt lat="45.12993" lon="5.88365"><time>2000-01-01T00:37:08.000Z</time></trkpt><trkpt lat="45.12987" lon="5.88363"><time>2000-01-01T00:37:18.000Z</time></trkpt><trkpt lat="45.12976" lon="5.88391"><ele>1816</ele><time>2000-01-01T00:37:28.000Z</time></trkpt><trkpt lat="45.12971" lon="5.88406"><time>2000-01-01T00:37:38.000Z</time></trkpt><trkpt lat="45.12962" lon="5.88419"><ele>1813</ele><time>2000-01-01T00:37:48.000Z</time></trkpt><trkpt lat="45.1295" lon="5.88446"><ele>1809</ele><time>2000-01-01T00:37:58.000Z</time></trkpt><trkpt lat="45.12936" lon="5.88467"><ele>1808</ele><time>2000-01-01T00:38:08.000Z</time></trkpt><trkpt lat="45.12932" lon="5.88468"><time>2000-01-01T00:38:18.000Z</time></trkpt><trkpt lat="45.12928" lon="5.88467"><time>2000-01-01T00:38:28.000Z</time></trkpt><trkpt lat="45.12926" lon="5.88462"><time>2000-01-01T00:38:38.000Z</time></trkpt><trkpt lat="45.12925" lon="5.8844"><ele>1798</ele><time>2000-01-01T00:38:48.000Z</time></trkpt><trkpt lat="45.12921" lon="5.8842"><time>2000-01-01T00:38:58.000Z</time></trkpt><trkpt lat="45.12909" lon="5.88384"><ele>1785</ele><time>2000-01-01T00:39:08.000Z</time></trkpt><trkpt lat="45.12903" lon="5.88374"><time>2000-01-01T00:39:18.000Z</time></trkpt><trkpt lat="45.12895" lon="5.88365"><ele>1781</ele><time>2000-01-01T00:39:28.000Z</time></trkpt><trkpt lat="45.12886" lon="5.88351"><time>2000-01-01T00:39:38.000Z</time></trkpt><trkpt lat="45.1288" lon="5.88342"><ele>1778</ele><time>2000-01-01T00:39:48.000Z</time></trkpt><trkpt lat="45.12869" lon="5.88318"><ele>1773</ele><time>2000-01-01T00:39:58.000Z</time></trkpt><trkpt lat="45.12874" lon="5.88299"><time>2000-01-01T00:40:08.000Z</time></trkpt><trkpt lat="45.12871" lon="5.8827"><ele>1771</ele><time>2000-01-01T00:40:18.000Z</time></trkpt><trkpt lat="45.12866" lon="5.88253"><time>2000-01-01T00:40:28.000Z</time></trkpt><trkpt lat="45.12858" lon="5.88241"><ele>1768</ele><time>2000-01-01T00:40:38.000Z</time></trkpt><trkpt lat="45.12839" lon="5.88218"><ele>1754</ele><time>2000-01-01T00:40:48.000Z</time></trkpt><trkpt lat="45.12821" lon="5.88195"><ele>1752</ele><time>2000-01-01T00:40:58.000Z</time></trkpt><trkpt lat="45.12814" lon="5.88184"><time>2000-01-01T00:41:08.000Z</time></trkpt><trkpt lat="45.12811" lon="5.88176"><time>2000-01-01T00:41:18.000Z</time></trkpt><trkpt lat="45.12807" lon="5.88163"><ele>1742</ele><time>2000-01-01T00:41:28.000Z</time></trkpt><trkpt lat="45.12805" lon="5.88147"><time>2000-01-01T00:41:38.000Z</time></trkpt><trkpt lat="45.12801" lon="5.88135"><ele>1741</ele><time>2000-01-01T00:41:48.000Z</time></trkpt><trkpt lat="45.12794" lon="5.88131"><time>2000-01-01T00:41:58.000Z</time></trkpt><trkpt lat="45.1279" lon="5.88126"><time>2000-01-01T00:42:08.000Z</time></trkpt><trkpt lat="45.12785" lon="5.88113"><ele>1738</ele><time>2000-01-01T00:42:18.000Z</time></trkpt><trkpt lat="45.12784" lon="5.88104"><time>2000-01-01T00:42:28.000Z</time></trkpt><trkpt lat="45.12773" lon="5.88085"><ele>1731</ele><time>2000-01-01T00:42:38.000Z</time></trkpt><trkpt lat="45.12764" lon="5.8807"><time>2000-01-01T00:42:48.000Z</time></trkpt><trkpt lat="45.12756" lon="5.88055"><ele>1714</ele><time>2000-01-01T00:42:58.000Z</time></trkpt><trkpt lat="45.12746" lon="5.88046"><time>2000-01-01T00:43:08.000Z</time></trkpt><trkpt lat="45.12739" lon="5.88041"><ele>1702</ele><time>2000-01-01T00:43:18.000Z</time></trkpt><trkpt lat="45.1273" lon="5.88029"><time>2000-01-01T00:43:28.000Z</time></trkpt><trkpt lat="45.12721" lon="5.88019"><ele>1701</ele><time>2000-01-01T00:43:38.000Z</time></trkpt><trkpt lat="45.12698" lon="5.88004"><ele>1695</ele><time>2000-01-01T00:43:48.000Z</time></trkpt><trkpt lat="45.12687" lon="5.87996"><time>2000-01-01T00:43:58.000Z</time></trkpt><trkpt lat="45.12673" lon="5.87991"><ele>1691</ele><time>2000-01-01T00:44:08.000Z</time></trkpt><trkpt lat="45.12659" lon="5.87994"><time>2000-01-01T00:44:18.000Z</time></trkpt><trkpt lat="45.12652" lon="5.87991"><ele>1686</ele><time>2000-01-01T00:44:28.000Z</time></trkpt><trkpt lat="45.12645" lon="5.87986"><time>2000-01-01T00:44:38.000Z</time></trkpt><trkpt lat="45.12619" lon="5.8797"><ele>1673</ele><time>2000-01-01T00:44:48.000Z</time></trkpt><trkpt lat="45.12597" lon="5.87937"><ele>1672</ele><time>2000-01-01T00:44:58.000Z</time></trkpt><trkpt lat="45.1258" lon="5.87909"><ele>1675</ele><time>2000-01-01T00:45:08.000Z</time></trkpt><trkpt lat="45.12553" lon="5.87885"><ele>1672</ele><time>2000-01-01T00:45:18.000Z</time></trkpt></trkseg></trk></gpx>